createdAt,value
2018-07-24T00:02:23.130Z,94492.30
2018-07-24T00:04:52.130Z,94493.83
2018-07-24T00:07:21.018Z,94455.12
2018-07-24T00:09:49.639Z,94498.87
2018-07-24T00:12:18.446Z,94492.04
2018-07-24T00:14:47.673Z,94485.80
2018-07-24T00:17:16.766Z,94489.27
2018-07-24T00:19:45.442Z,94483.85
2018-07-24T00:22:14.034Z,94489.52
2018-07-24T00:24:43.042Z,94486.59
2018-07-24T00:27:12.052Z,94484.95
2018-07-24T00:29:40.749Z,94483.59
2018-07-24T00:32:09.412Z,94481.66
2018-07-24T00:34:38.428Z,94476.81
2018-07-24T00:37:07.316Z,94472.47
2018-07-24T00:39:36.208Z,94466.22
2018-07-24T00:42:05.259Z,94468.16
2018-07-24T00:44:33.890Z,94464.64
2018-07-24T00:47:02.775Z,94467.53
2018-07-24T00:49:31.759Z,94462.28
2018-07-24T00:52:00.923Z,94459.51
2018-07-24T00:54:29.544Z,94461.07
2018-07-24T00:56:58.497Z,94459.87
2018-07-24T00:59:27.928Z,94459.13
2018-07-24T01:01:56.563Z,94463.61
2018-07-24T01:04:25.259Z,94465.58
2018-07-24T01:06:54.125Z,94462.86
2018-07-24T01:09:22.795Z,94462.29
2018-07-24T01:11:51.423Z,94453.30
2018-07-24T01:14:20.139Z,94440.87
2018-07-24T01:16:48.755Z,94454.05
2018-07-24T01:19:17.403Z,94463.06
2018-07-24T01:21:46.065Z,94469.89
2018-07-24T01:24:14.683Z,94459.39
2018-07-24T01:26:43.306Z,94466.97
2018-07-24T01:29:11.979Z,94461.96
2018-07-24T01:31:40.626Z,94462.13
2018-07-24T01:34:09.310Z,94461.50
2018-07-24T01:36:38.019Z,94459.87
2018-07-24T01:39:09.051Z,94456.98
2018-07-24T01:41:37.719Z,94459.92
2018-07-24T01:44:06.674Z,94458.92
2018-07-24T01:46:35.372Z,94463.62
2018-07-24T01:49:04.253Z,94470.04
2018-07-24T01:51:32.931Z,94465.77
2018-07-24T01:54:01.643Z,94468.50
2018-07-24T01:56:30.341Z,94137.25
2018-07-24T01:58:59.326Z,94467.90
2018-07-24T02:01:28.254Z,94459.51
2018-07-24T02:03:56.873Z,94461.92
2018-07-24T02:06:25.518Z,94454.09
2018-07-24T02:08:54.741Z,94460.50
2018-07-24T02:11:23.367Z,94455.22
2018-07-24T02:13:52.352Z,94277.87
2018-07-24T02:16:20.998Z,94456.21
2018-07-24T02:18:49.663Z,94460.30
2018-07-24T02:21:18.343Z,94461.06
2018-07-24T02:23:47.176Z,94461.46
2018-07-24T02:26:15.807Z,94459.68
2018-07-24T02:28:44.729Z,94453.81
2018-07-24T02:31:13.431Z,94452.66
2018-07-24T02:33:42.115Z,94460.84
2018-07-24T02:36:10.777Z,94450.13
2018-07-24T02:38:39.438Z,94447.80
2018-07-24T02:41:08.471Z,94450.75
2018-07-24T02:43:37.099Z,94446.45
2018-07-24T02:46:05.916Z,94448.77
2018-07-24T02:48:34.543Z,94450.92
2018-07-24T02:51:03.508Z,94443.09
2018-07-24T02:53:32.147Z,94452.27
2018-07-24T02:56:01.566Z,94451.45
2018-07-24T02:58:30.212Z,94453.05
2018-07-24T03:00:58.875Z,94444.25
2018-07-24T03:03:27.530Z,94447.39
2018-07-24T03:05:56.144Z,94459.68
2018-07-24T03:08:24.832Z,94462.63
2018-07-24T03:10:53.777Z,94462.63
2018-07-24T03:13:22.519Z,94461.84
2018-07-24T03:15:51.283Z,94462.05
2018-07-24T03:18:19.972Z,94463.20
2018-07-24T03:20:48.609Z,94460.30
2018-07-24T03:23:17.564Z,94457.14
2018-07-24T03:25:46.268Z,94461.28
2018-07-24T03:28:14.943Z,94467.70
2018-07-24T03:30:43.644Z,94463.80
2018-07-24T03:33:12.297Z,94473.75
2018-07-24T03:35:41.298Z,94476.03
2018-07-24T03:38:10.135Z,94477.23
2018-07-24T03:40:38.803Z,94480.36
2018-07-24T03:43:07.463Z,94479.23
2018-07-24T03:45:36.138Z,94481.55
2018-07-24T03:48:04.923Z,94486.44
2018-07-24T03:50:33.591Z,94485.26
2018-07-24T03:53:02.550Z,94482.14
2018-07-24T03:55:31.239Z,94485.28
2018-07-24T03:57:59.941Z,94483.70
2018-07-24T04:00:28.575Z,94482.11
2018-07-24T04:02:57.229Z,94482.90
2018-07-24T04:05:25.943Z,94488.38
2018-07-24T04:07:54.607Z,94488.55
2018-07-24T04:10:23.771Z,94487.99
2018-07-24T04:12:52.456Z,94488.15
2018-07-24T04:15:21.150Z,94480.33
2018-07-24T04:17:49.799Z,94486.58
2018-07-24T04:20:18.438Z,94486.94
2018-07-24T04:22:47.071Z,94482.80
2018-07-24T04:25:15.763Z,94487.68
2018-07-24T04:27:44.407Z,94482.37
2018-07-24T04:30:13.091Z,94486.88
2018-07-24T04:32:41.690Z,94486.61
2018-07-24T04:35:10.678Z,94489.91
2018-07-24T04:37:39.326Z,94484.23
2018-07-24T04:40:08.071Z,94485.03
2018-07-24T04:42:37.000Z,94490.87
2018-07-24T04:45:06.390Z,94490.66
2018-07-24T04:47:35.020Z,94492.44
2018-07-24T04:50:03.722Z,94491.02
2018-07-24T04:52:32.347Z,94495.17
2018-07-24T04:55:01.031Z,94499.28
2018-07-24T04:57:29.826Z,94507.06
2018-07-24T04:59:58.986Z,94509.42
2018-07-24T05:02:27.668Z,94508.78
2018-07-24T05:04:56.603Z,94502.00
2018-07-24T05:07:25.241Z,94505.70
2018-07-24T05:09:54.024Z,94509.58
2018-07-24T05:12:23.023Z,94501.72
2018-07-24T05:14:51.622Z,94477.05
2018-07-24T05:17:20.267Z,94503.98
2018-07-24T05:19:49.417Z,94511.02
2018-07-24T05:22:18.115Z,94495.98
2018-07-24T05:24:46.835Z,94506.70
2018-07-24T05:27:16.027Z,94500.02
2018-07-24T05:29:44.951Z,94510.20
2018-07-24T05:32:13.682Z,94506.71
2018-07-24T05:34:42.775Z,94512.55
2018-07-24T05:37:11.436Z,94513.55
2018-07-24T05:39:40.110Z,94518.23
2018-07-24T05:42:08.818Z,94517.82
2018-07-24T05:44:37.512Z,94520.16
2018-07-24T05:47:06.886Z,94523.48
2018-07-24T05:49:35.566Z,94525.64
2018-07-24T05:52:04.209Z,94527.76
2018-07-24T05:54:32.818Z,94530.84
2018-07-24T05:57:01.439Z,94535.25
2018-07-24T05:59:30.351Z,94530.34
2018-07-24T06:01:59.972Z,94374.23
2018-07-24T06:04:28.732Z,94496.61
2018-07-24T06:06:57.476Z,94526.90
2018-07-24T06:09:26.182Z,94519.61
2018-07-24T06:11:54.845Z,94526.77
2018-07-24T06:14:23.738Z,94527.30
2018-07-24T06:16:52.461Z,94529.53
2018-07-24T06:19:21.124Z,94527.30
2018-07-24T06:21:49.842Z,94532.23
2018-07-24T06:24:18.418Z,94534.56
2018-07-24T06:26:47.142Z,94537.16
2018-07-24T06:29:15.936Z,94538.46
2018-07-24T06:31:44.574Z,94534.07
2018-07-24T06:34:13.488Z,94532.88
2018-07-24T06:36:42.549Z,94536.46
2018-07-24T06:39:12.662Z,94538.28
2018-07-24T06:41:41.922Z,94523.11
2018-07-24T06:44:11.680Z,94524.45
2018-07-24T06:46:40.347Z,94523.81
2018-07-24T06:49:09.564Z,94518.56
2018-07-24T06:51:38.659Z,94529.50
2018-07-24T06:54:07.298Z,94522.22
2018-07-24T06:56:36.409Z,94533.18
2018-07-24T06:59:05.067Z,94536.15
2018-07-24T07:01:33.723Z,94532.38
2018-07-24T07:04:02.378Z,94527.95
2018-07-24T07:06:31.027Z,94528.50
2018-07-24T07:09:02.588Z,94533.96
2018-07-24T07:11:31.902Z,94539.48
2018-07-24T07:14:00.613Z,94550.80
2018-07-24T07:16:29.250Z,94543.03
2018-07-24T07:18:57.896Z,94546.42
2018-07-24T07:21:26.826Z,94550.01
2018-07-24T07:23:55.432Z,94544.76
2018-07-24T07:26:24.093Z,94553.61
2018-07-24T07:28:52.748Z,94550.05
2018-07-24T07:31:21.413Z,94551.45
2018-07-24T07:33:50.124Z,94549.73
2018-07-24T07:36:19.082Z,94555.89
2018-07-24T07:38:48.990Z,94561.31
2018-07-24T07:41:17.633Z,94556.60
2018-07-24T07:43:46.278Z,94564.24
2018-07-24T07:46:14.908Z,94563.58
2018-07-24T07:48:43.582Z,94557.71
2018-07-24T07:51:12.316Z,94553.03
2018-07-24T07:53:40.978Z,94557.31
2018-07-24T07:56:09.675Z,94553.39
2018-07-24T07:58:38.630Z,94413.22
2018-07-24T08:01:07.351Z,94560.27
2018-07-24T08:03:36.275Z,94564.65
2018-07-24T08:06:05.039Z,94562.72
2018-07-24T08:08:33.639Z,94559.54
2018-07-24T08:11:02.698Z,94562.87
2018-07-24T08:13:31.629Z,94564.16
2018-07-24T08:16:00.671Z,94562.23
2018-07-24T08:18:29.629Z,94566.55
2018-07-24T08:20:58.560Z,94559.09
2018-07-24T08:23:27.302Z,94561.16
2018-07-24T08:25:56.551Z,94559.11
2018-07-24T08:28:25.270Z,94564.38
2018-07-24T08:30:54.006Z,94564.39
2018-07-24T08:33:22.829Z,94560.00
2018-07-24T08:35:51.564Z,94567.20
2018-07-24T08:38:20.266Z,94563.48
2018-07-24T08:40:49.034Z,94524.83
2018-07-24T08:43:17.713Z,94569.56
2018-07-24T08:45:46.411Z,94560.53
2018-07-24T08:48:15.107Z,94568.73
2018-07-24T08:50:43.847Z,94558.52
2018-07-24T08:53:12.731Z,94558.08
2018-07-24T08:55:41.448Z,94561.51
2018-07-24T08:58:09.888Z,94562.72
2018-07-24T09:00:38.818Z,94558.16
2018-07-24T09:03:07.815Z,94562.77
2018-07-24T09:05:36.777Z,94560.13
2018-07-24T09:08:05.895Z,94551.01
2018-07-24T09:10:34.691Z,94549.80
2018-07-24T09:13:03.452Z,94552.27
2018-07-24T09:15:32.121Z,94550.67
2018-07-24T09:18:01.353Z,94550.41
2018-07-24T09:20:30.031Z,94551.41
2018-07-24T09:22:58.799Z,94551.80
2018-07-24T09:25:27.582Z,94543.55
2018-07-24T09:27:56.298Z,94546.35
2018-07-24T09:30:25.006Z,94544.67
2018-07-24T09:32:54.057Z,94544.09
2018-07-24T09:35:22.774Z,94530.86
2018-07-24T09:37:51.855Z,94545.37
2018-07-24T09:40:21.153Z,94540.38
2018-07-24T09:42:50.138Z,94540.50
2018-07-24T09:45:18.874Z,94541.48
2018-07-24T09:47:47.839Z,94539.55
2018-07-24T09:50:16.829Z,94535.02
2018-07-24T09:52:45.486Z,94536.67
2018-07-24T09:55:14.137Z,94532.20
2018-07-24T09:57:42.821Z,94535.25
2018-07-24T10:00:11.502Z,94533.09
2018-07-24T10:02:40.174Z,94530.94
2018-07-24T10:05:09.471Z,94529.17
2018-07-24T10:07:38.475Z,94523.45
2018-07-24T10:10:07.403Z,94526.97
2018-07-24T10:12:36.752Z,94518.73
2018-07-24T10:15:05.755Z,94513.23
2018-07-24T10:17:34.966Z,94521.33
2018-07-24T10:20:04.291Z,94521.52
2018-07-24T10:22:33.010Z,94516.79
2018-07-24T10:25:02.095Z,94517.33
2018-07-24T10:27:30.762Z,94512.77
2018-07-24T10:29:59.400Z,94518.66
2018-07-24T10:32:28.396Z,94510.20
2018-07-24T10:34:57.136Z,94511.23
2018-07-24T10:37:26.492Z,94510.63
2018-07-24T10:39:55.161Z,94507.63
2018-07-24T10:42:24.095Z,94510.10
2018-07-24T10:44:52.766Z,94504.58
2018-07-24T10:47:21.481Z,94510.40
2018-07-24T10:49:50.143Z,94506.06
2018-07-24T10:52:19.148Z,94504.86
2018-07-24T10:54:48.252Z,94494.70
2018-07-24T10:57:17.512Z,94503.92
2018-07-24T10:59:46.267Z,94492.00
2018-07-24T11:02:15.011Z,94488.59
2018-07-24T11:04:43.806Z,94484.73
2018-07-24T11:07:12.525Z,94489.98
2018-07-24T11:09:41.160Z,94489.20
2018-07-24T11:12:10.295Z,94480.91
2018-07-24T11:14:39.288Z,94482.16
2018-07-24T11:17:07.940Z,94478.00
2018-07-24T11:19:37.762Z,94468.79
2018-07-24T11:22:06.850Z,94469.25
2018-07-24T11:24:35.525Z,94467.68
2018-07-24T11:27:04.580Z,94465.89
2018-07-24T11:29:33.777Z,94467.26
2018-07-24T11:32:02.438Z,94464.23
2018-07-24T11:34:31.723Z,94452.93
2018-07-24T11:37:00.465Z,94463.60
2018-07-24T11:39:29.090Z,94450.92
2018-07-24T11:41:58.222Z,94448.67
2018-07-24T11:44:26.857Z,94454.56
2018-07-24T11:46:55.814Z,94444.30
2018-07-24T11:49:24.414Z,94440.97
2018-07-24T11:51:53.423Z,94438.45
2018-07-24T11:54:22.673Z,94439.48
2018-07-24T11:56:51.329Z,94435.83
2018-07-24T11:59:20.080Z,94381.36
2018-07-24T12:01:49.086Z,94433.64
2018-07-24T12:04:18.278Z,94433.38
2018-07-24T12:06:47.035Z,94430.05
2018-07-24T12:09:15.760Z,94426.20
2018-07-24T12:11:48.394Z,94429.33
2018-07-24T12:14:17.135Z,94427.73
2018-07-24T12:16:46.154Z,94424.84
2018-07-24T12:19:15.124Z,94417.53
2018-07-24T12:21:43.854Z,94417.18
2018-07-24T12:24:13.607Z,94420.49
2018-07-24T12:26:42.342Z,94424.20
2018-07-24T12:29:11.262Z,94427.23
2018-07-24T12:31:40.062Z,94421.84
2018-07-24T12:34:09.427Z,94430.53
2018-07-24T12:36:38.101Z,94422.04
2018-07-24T12:39:09.523Z,94430.00
2018-07-24T12:41:38.258Z,94439.21
2018-07-24T12:44:06.982Z,94454.83
2018-07-24T12:46:35.877Z,94445.05
2018-07-24T12:49:04.625Z,94400.39
2018-07-24T12:51:33.330Z,94451.47
2018-07-24T12:54:01.999Z,94448.45
2018-07-24T12:56:30.747Z,94456.34
2018-07-24T12:58:59.448Z,94456.61
2018-07-24T13:01:28.148Z,94463.48
2018-07-24T13:03:56.931Z,94462.62
2018-07-24T13:06:25.554Z,94463.32
2018-07-24T13:08:54.349Z,94468.23
2018-07-24T13:11:23.414Z,94467.14
2018-07-24T13:13:52.444Z,94479.85
2018-07-24T13:16:21.420Z,94492.32
2018-07-24T13:18:50.191Z,94490.02
2018-07-24T13:21:18.864Z,94490.27
2018-07-24T13:23:47.633Z,94493.09
2018-07-24T13:26:16.397Z,94497.54
2018-07-24T13:28:45.119Z,94494.92
2018-07-24T13:31:14.151Z,94496.75
2018-07-24T13:33:42.830Z,94494.79
2018-07-24T13:36:11.801Z,94482.80
2018-07-24T13:38:40.485Z,94477.92
2018-07-24T13:41:09.266Z,94480.84
2018-07-24T13:43:37.933Z,94483.41
2018-07-24T13:46:06.859Z,94479.58
2018-07-24T13:48:35.539Z,94481.44
2018-07-24T13:51:04.274Z,94480.08
2018-07-24T13:53:33.011Z,94473.95
2018-07-24T13:56:01.662Z,94474.28
2018-07-24T13:58:30.365Z,94485.85
2018-07-24T14:00:59.132Z,94471.70
2018-07-24T14:03:28.210Z,94475.02
2018-07-24T14:05:56.871Z,94470.95
2018-07-24T14:08:25.638Z,94462.31
2018-07-24T14:10:54.367Z,94464.45
2018-07-24T14:13:23.158Z,94454.54
2018-07-24T14:15:51.893Z,94463.16
2018-07-24T14:18:20.623Z,94463.97
2018-07-24T14:20:49.321Z,94460.70
2018-07-24T14:23:18.054Z,94449.48
2018-07-24T14:25:46.803Z,94454.86
2018-07-24T14:28:15.523Z,94455.30
2018-07-24T14:30:44.255Z,94451.09
2018-07-24T14:33:12.898Z,94454.75
2018-07-24T14:35:41.633Z,94447.81
2018-07-24T14:38:10.263Z,94437.33
2018-07-24T14:40:38.913Z,94443.63
2018-07-24T14:43:07.610Z,94448.41
2018-07-24T14:45:36.686Z,94445.51
2018-07-24T14:48:05.534Z,94453.16
2018-07-24T14:50:34.199Z,94466.42
2018-07-24T14:53:02.947Z,94471.47
2018-07-24T14:55:31.641Z,94468.17
2018-07-24T14:58:00.323Z,94464.22
2018-07-24T15:00:29.145Z,94459.30
2018-07-24T15:02:58.414Z,94478.52
2018-07-24T15:05:27.433Z,94473.55
2018-07-24T15:07:56.053Z,94485.63
2018-07-24T15:10:24.715Z,94473.88
2018-07-24T15:12:53.972Z,94480.23
2018-07-24T15:15:23.296Z,94478.01
2018-07-24T15:17:52.013Z,94488.53
2018-07-24T15:20:20.676Z,94484.16
2018-07-24T15:22:49.356Z,94474.80
2018-07-24T15:25:17.981Z,94475.47
2018-07-24T15:27:46.700Z,94476.73
2018-07-24T15:30:15.733Z,94477.68
2018-07-24T15:32:45.246Z,94485.28
2018-07-24T15:35:13.916Z,94468.17
2018-07-24T15:37:42.610Z,94483.72
2018-07-24T15:40:11.304Z,94484.25
2018-07-24T15:42:39.967Z,94486.81
2018-07-24T15:45:08.631Z,94490.16
2018-07-24T15:47:37.264Z,94492.31
2018-07-24T15:50:05.918Z,94492.00
2018-07-24T15:52:34.705Z,94495.59
2018-07-24T15:55:03.380Z,94492.16
2018-07-24T15:57:32.023Z,94481.41
2018-07-24T16:00:00.711Z,94486.28
2018-07-24T16:02:29.450Z,94476.38
2018-07-24T16:04:58.179Z,94501.11
2018-07-24T16:07:26.896Z,94492.46
2018-07-24T16:09:55.651Z,94495.90
2018-07-24T16:12:24.360Z,94495.20
2018-07-24T16:14:53.274Z,94503.32
2018-07-24T16:17:21.945Z,94495.95
2018-07-24T16:19:50.704Z,94484.28
2018-07-24T16:22:19.351Z,94505.97
2018-07-24T16:24:48.018Z,94513.70
2018-07-24T16:27:16.754Z,94515.67
2018-07-24T16:29:45.550Z,94514.05
2018-07-24T16:32:14.282Z,94522.69
2018-07-24T16:34:43.018Z,94532.01
2018-07-24T16:37:11.864Z,94530.75
2018-07-24T16:39:40.935Z,94533.92
2018-07-24T16:42:09.813Z,94535.00
2018-07-24T16:44:38.607Z,94535.34
2018-07-24T16:47:07.308Z,94543.59
2018-07-24T16:49:36.316Z,94540.44
2018-07-24T16:52:05.132Z,94540.44
2018-07-24T16:54:33.877Z,94544.28
2018-07-24T16:57:02.507Z,94548.33
2018-07-24T16:59:31.190Z,94550.94
2018-07-24T17:01:59.897Z,94543.80
2018-07-24T17:04:28.528Z,94543.80
2018-07-24T17:06:57.239Z,94537.80
2018-07-24T17:09:25.917Z,94535.83
2018-07-24T17:11:54.611Z,94536.17
2018-07-24T17:14:23.250Z,94551.79
2018-07-24T17:16:51.866Z,94554.91
2018-07-24T17:19:20.758Z,94562.64
2018-07-24T17:21:49.430Z,94577.69
2018-07-24T17:24:18.023Z,94577.59
2018-07-24T17:26:46.689Z,94583.91
2018-07-24T17:29:15.395Z,94590.63
2018-07-24T17:31:44.070Z,94586.77
2018-07-24T17:34:13.085Z,94581.27
2018-07-24T17:36:42.004Z,94577.53
2018-07-24T17:39:11.392Z,94577.62
2018-07-24T17:41:40.036Z,94583.70
2018-07-24T17:44:08.818Z,94577.75
2018-07-24T17:46:37.838Z,94578.80
2018-07-24T17:49:07.038Z,94575.00
2018-07-24T17:51:35.730Z,94580.20
2018-07-24T17:54:04.396Z,94576.20
2018-07-24T17:56:33.055Z,94581.23
2018-07-24T17:59:01.974Z,94579.67
2018-07-24T18:01:30.669Z,94583.09
2018-07-24T18:03:59.335Z,94588.03
2018-07-24T18:06:28.006Z,94594.70
2018-07-24T18:08:56.621Z,94597.17
2018-07-24T18:11:25.274Z,94606.19
2018-07-24T18:13:54.033Z,94604.27
2018-07-24T18:16:22.699Z,94603.95
2018-07-24T18:18:51.326Z,94599.48
2018-07-24T18:21:20.028Z,94604.62
2018-07-24T18:23:49.006Z,94597.56
2018-07-24T18:26:17.895Z,94596.81
2018-07-24T18:28:46.522Z,94602.89
2018-07-24T18:31:15.282Z,94599.36
2018-07-24T18:33:43.954Z,94592.78
2018-07-24T18:36:12.619Z,94594.81
2018-07-24T18:38:41.370Z,94592.73
2018-07-24T18:41:10.303Z,94600.06
2018-07-24T18:43:38.894Z,94599.11
2018-07-24T18:46:07.590Z,94598.50
2018-07-24T18:48:36.200Z,94600.30
2018-07-24T18:51:04.826Z,94602.80
2018-07-24T18:53:33.473Z,94604.72
2018-07-24T18:56:02.252Z,94611.81
2018-07-24T18:58:31.293Z,94618.48
2018-07-24T19:01:00.191Z,94614.25
2018-07-24T19:03:28.933Z,94621.34
2018-07-24T19:05:57.746Z,94622.36
2018-07-24T19:08:26.367Z,94630.66
2018-07-24T19:10:55.003Z,94638.53
2018-07-24T19:13:23.627Z,94634.50
2018-07-24T19:15:52.378Z,94633.46
2018-07-24T19:18:21.378Z,94636.98
2018-07-24T19:20:50.434Z,94640.61
2018-07-24T19:23:19.367Z,94636.92
2018-07-24T19:25:48.431Z,94640.83
2018-07-24T19:28:17.074Z,94643.80
2018-07-24T19:30:46.182Z,94644.06
2018-07-24T19:33:15.111Z,94635.12
2018-07-24T19:35:43.748Z,94632.80
2018-07-24T19:38:12.446Z,94627.69
2018-07-24T19:40:41.102Z,94620.50
2018-07-24T19:43:09.987Z,94625.39
2018-07-24T19:45:38.630Z,94625.56
2018-07-24T19:48:07.278Z,94615.81
2018-07-24T19:50:35.867Z,94615.08
2018-07-24T19:53:04.521Z,94615.47
2018-07-24T19:55:33.186Z,94614.45
2018-07-24T19:58:01.818Z,94617.97
2018-07-24T20:00:30.486Z,94617.18
2018-07-24T20:02:59.205Z,94616.25
2018-07-24T20:05:27.947Z,94626.98
2018-07-24T20:07:56.577Z,94628.36
2018-07-24T20:10:25.217Z,94627.78
2018-07-24T20:12:53.853Z,94632.51
2018-07-24T20:15:23.359Z,94631.31
2018-07-24T20:17:52.055Z,94634.46
2018-07-24T20:20:20.723Z,94633.88
2018-07-24T20:22:49.523Z,94628.98
2018-07-24T20:25:18.142Z,94629.19
2018-07-24T20:27:47.912Z,94631.31
2018-07-24T20:30:16.599Z,94628.98
2018-07-24T20:32:45.294Z,94626.45
2018-07-24T20:35:13.940Z,94622.94
2018-07-24T20:37:42.663Z,94619.62
2018-07-24T20:40:11.327Z,94619.41
2018-07-24T20:42:39.947Z,94618.56
2018-07-24T20:45:08.622Z,94612.44
2018-07-24T20:47:37.623Z,94613.96
2018-07-24T20:50:06.242Z,94610.22
2018-07-24T20:52:34.873Z,94616.09
2018-07-24T20:55:03.564Z,94606.88
2018-07-24T20:57:32.328Z,94612.30
2018-07-24T21:00:01.625Z,94609.34
2018-07-24T21:02:30.316Z,94613.23
2018-07-24T21:04:59.030Z,94607.59
2018-07-24T21:07:27.777Z,94610.70
2018-07-24T21:09:56.709Z,94614.19
2018-07-24T21:12:25.353Z,94608.71
2018-07-24T21:14:54.030Z,94613.43
2018-07-24T21:17:22.742Z,94612.23
2018-07-24T21:19:51.446Z,94611.28
2018-07-24T21:22:20.135Z,94608.71
2018-07-24T21:24:48.756Z,94607.70
2018-07-24T21:27:17.458Z,94611.94
2018-07-24T21:29:46.226Z,94612.34
2018-07-24T21:32:14.855Z,94611.64
2018-07-24T21:34:43.566Z,94610.41
2018-07-24T21:37:12.204Z,94618.05
2018-07-24T21:39:40.960Z,94618.78
2018-07-24T21:42:09.812Z,94627.71
2018-07-24T21:44:38.427Z,94629.43
2018-07-24T21:47:07.118Z,94626.69
2018-07-24T21:49:35.843Z,94622.54
2018-07-24T21:52:04.579Z,94620.95
2018-07-24T21:54:33.235Z,94627.63
2018-07-24T21:57:02.136Z,94631.95
2018-07-24T21:59:31.069Z,94625.95
2018-07-24T22:01:59.683Z,94628.36
2018-07-24T22:04:28.314Z,94626.47
2018-07-24T22:06:57.211Z,94624.87
2018-07-24T22:09:25.864Z,94620.37
2018-07-24T22:11:55.590Z,94620.41
2018-07-24T22:14:24.247Z,94623.67
2018-07-24T22:16:52.906Z,94626.19
2018-07-24T22:19:21.581Z,94626.41
2018-07-24T22:21:50.280Z,94627.19
2018-07-24T22:24:18.906Z,94630.28
2018-07-24T22:26:47.603Z,94632.80
2018-07-24T22:29:16.287Z,94621.45
2018-07-24T22:31:44.962Z,94626.92
2018-07-24T22:34:13.944Z,94620.85
2018-07-24T22:36:42.571Z,94619.22
2018-07-24T22:39:12.089Z,94611.98
2018-07-24T22:41:41.027Z,94610.98
2018-07-24T22:44:11.195Z,94602.21
2018-07-24T22:46:40.490Z,94599.89
2018-07-24T22:49:12.202Z,94600.48
2018-07-24T22:51:41.315Z,94598.52
2018-07-24T22:54:10.026Z,94593.42
2018-07-24T22:56:38.771Z,94599.63
2018-07-24T22:59:07.451Z,94601.80
2018-07-24T23:01:36.110Z,94600.62
2018-07-24T23:04:14.720Z,94599.04
2018-07-24T23:06:43.351Z,94602.36
2018-07-24T23:09:12.006Z,94598.05
2018-07-24T23:11:41.054Z,94601.43
2018-07-24T23:14:09.710Z,94601.84
2018-07-24T23:16:38.497Z,94598.89
2018-07-24T23:19:08.401Z,94591.21
2018-07-24T23:21:37.116Z,94591.21
2018-07-24T23:24:05.865Z,94596.22
2018-07-24T23:26:34.496Z,94585.86
2018-07-24T23:29:03.100Z,94585.64
2018-07-24T23:31:31.723Z,94589.92
2018-07-24T23:34:00.359Z,94580.91
2018-07-24T23:36:29.010Z,94585.38
2018-07-24T23:38:57.698Z,94574.26
2018-07-24T23:41:26.323Z,94578.36
2018-07-24T23:43:54.973Z,94583.05
2018-07-24T23:46:23.606Z,94578.36
2018-07-24T23:48:52.300Z,94574.80
2018-07-24T23:51:20.953Z,94579.08
2018-07-24T23:53:49.641Z,94574.97
2018-07-24T23:56:18.288Z,94571.69
2018-07-24T23:58:46.904Z,94572.70
